Time;durP1;ratioP1;P1;durP2;ratioP2;P2;SDS_P1;SDS_P2;PMS_P1;PMS_P2;Temp;Humidity;BMP_temperature;BMP_pressure;BME280_temperature;BME280_humidity;BME280_pressure;Samples;Min_cycle;Max_cycle;Signal;HPM_P1;HPM_P2
2021/01/23 00:01:10;;;;;;;13.70;9.02;;;21.00;45.30;;;;;;20804469;22;20439;-14
2021/01/23 00:11:11;;;;;;;14.90;9.25;;;20.80;45.20;;;;;;20799191;28;20025;-15
2021/01/23 00:21:11;;;;;;;12.20;7.47;;;20.70;44.80;;;;;;20776533;28;20065;-14
2021/01/23 00:31:13;;;;;;;14.30;6.65;;;20.60;44.90;;;;;;20753224;28;20069;-15
2021/01/23 00:41:14;;;;;;;12.20;7.43;;;20.50;44.80;;;;;;20761041;28;20414;-15
2021/01/23 00:51:14;;;;;;;9.50;6.47;;;20.50;44.50;;;;;;20751250;28;20102;-15
2021/01/23 01:01:15;;;;;;;9.87;6.93;;;20.30;44.70;;;;;;20757241;28;20038;-15
2021/01/23 01:11:15;;;;;;;12.30;6.28;;;20.40;44.30;;;;;;20764516;28;20474;-14
2021/01/23 01:21:16;;;;;;;8.45;5.63;;;20.50;44.00;;;;;;20747279;28;20029;-14
2021/01/23 01:31:17;;;;;;;7.55;5.72;;;20.40;44.00;;;;;;20746431;28;20049;-14
2021/01/23 01:41:17;;;;;;;7.75;4.78;;;20.70;43.00;;;;;;20753458;28;20018;-15
2021/01/23 01:51:18;;;;;;;8.98;5.57;;;20.70;42.70;;;;;;20750539;28;20018;-15
2021/01/23 02:01:19;;;;;;;6.28;4.75;;;20.70;42.20;;;;;;20743874;28;20503;-14
2021/01/23 02:11:40;;;;;;;10.63;4.97;;;20.70;42.10;;;;;;20744390;28;20453;-14
2021/01/23 02:22:12;;;;;;;6.35;4.20;;;20.80;41.70;;;;;;20746401;28;20394;-14
2021/01/23 02:32:15;;;;;;;6.68;4.32;;;20.70;41.60;;;;;;20575088;28;20047;-14
2021/01/23 02:42:15;;;;;;;8.93;4.22;;;20.80;41.40;;;;;;20565487;28;20039;-14
2021/01/23 02:52:42;;;;;;;6.20;4.22;;;20.70;41.30;;;;;;20557773;28;20047;-14
2021/01/23 03:02:49;;;;;;;6.65;4.22;;;20.80;41.00;;;;;;20605691;28;20479;-14
2021/01/23 03:12:49;;;;;;;5.20;3.35;;;20.80;40.90;;;;;;20778099;28;20089;-14
2021/01/23 03:22:50;;;;;;;6.80;3.58;;;20.80;40.60;;;;;;20751059;28;20057;-13
2021/01/23 03:32:52;;;;;;;5.10;3.42;;;20.80;40.60;;;;;;20738220;28;20060;-13
2021/01/23 03:42:52;;;;;;;6.25;3.40;;;20.80;40.40;;;;;;20753434;28;20113;-13
2021/01/23 03:52:53;;;;;;;4.95;3.22;;;20.80;40.30;;;;;;20735776;28;20460;-15
2021/01/23 04:02:53;;;;;;;5.35;2.70;;;20.80;40.10;;;;;;20754126;28;20057;-14
2021/01/23 04:12:54;;;;;;;4.50;2.75;;;20.80;40.10;;;;;;20767398;28;20061;-14
2021/01/23 04:22:55;;;;;;;4.43;2.90;;;20.90;39.90;;;;;;20755624;28;20084;-14
2021/01/23 04:32:55;;;;;;;5.47;3.60;;;20.90;39.70;;;;;;20756469;28;20223;-13
2021/01/23 04:42:56;;;;;;;3.87;3.07;;;20.90;39.70;;;;;;20760093;28;20034;-14
2021/01/23 04:52:57;;;;;;;6.70;3.42;;;21.00;39.50;;;;;;20768213;28;20475;-13
2021/01/23 05:03:05;;;;;;;6.28;3.53;;;20.90;39.50;;;;;;20760766;28;20042;-15
2021/01/23 05:13:16;;;;;;;7.83;2.90;;;21.00;39.40;;;;;;20746731;28;20038;-14
2021/01/23 05:23:23;;;;;;;7.50;2.95;;;20.90;39.50;;;;;;20746737;28;20037;-14
2021/01/23 05:33:33;;;;;;;6.10;2.65;;;21.00;39.30;;;;;;20754678;28;20048;-14
2021/01/23 05:43:42;;;;;;;3.70;2.25;;;20.90;39.40;;;;;;20745617;28;20036;-14
2021/01/23 05:53:43;;;;;;;4.20;2.50;;;21.00;39.20;;;;;;20745312;28;20511;-14
2021/01/23 06:03:46;;;;;;;4.95;2.30;;;20.90;39.40;;;;;;20730871;28;20042;-15
2021/01/23 06:13:55;;;;;;;4.40;2.25;;;21.10;39.10;;;;;;20742992;28;20038;-15
2021/01/23 06:23:56;;;;;;;6.38;2.50;;;21.00;39.30;;;;;;20740740;28;20370;-14
2021/01/23 06:33:56;;;;;;;7.07;2.13;;;21.00;39.40;;;;;;20740821;28;20124;-14
2021/01/23 06:44:06;;;;;;;6.60;1.92;;;20.90;39.60;;;;;;20755163;28;20083;-14
2021/01/23 06:54:20;;;;;;;6.78;1.63;;;21.00;39.40;;;;;;20739866;28;20026;-13
2021/01/23 07:04:21;;;;;;;4.32;2.03;;;21.00;39.60;;;;;;20699874;28;20094;-14
2021/01/23 07:14:21;;;;;;;4.37;2.33;;;21.10;39.40;;;;;;20744484;28;20021;-14
2021/01/23 07:24:22;;;;;;;3.90;1.52;;;21.00;39.60;;;;;;20753328;28;20496;-14
2021/01/23 07:34:22;;;;;;;5.55;2.05;;;21.20;39.30;;;;;;20742803;28;20099;-15
2021/01/23 07:44:26;;;;;;;4.97;2.13;;;21.60;38.70;;;;;;20736689;28;20045;-14
2021/01/23 07:54:27;;;;;;;3.00;1.45;;;22.10;38.00;;;;;;20754586;28;20038;-14
2021/01/23 08:04:32;;;;;;;3.72;1.80;;;22.60;37.30;;;;;;20720171;28;20054;-15
2021/01/23 08:14:32;;;;;;;5.68;1.50;;;23.10;37.10;;;;;;20734677;28;20033;-15
2021/01/23 08:24:34;;;;;;;7.22;1.55;;;23.50;37.30;;;;;;20754896;28;20034;-16
2021/01/23 08:34:34;;;;;;;6.25;1.77;;;23.60;36.80;;;;;;20751279;28;20025;-15
2021/01/23 08:44:35;;;;;;;4.40;1.60;;;23.50;37.00;;;;;;20723661;28;20084;-15
2021/01/23 08:54:35;;;;;;;3.03;0.98;;;23.30;37.30;;;;;;20714179;28;20588;-16
2021/01/23 09:04:36;;;;;;;4.93;1.25;;;23.00;37.70;;;;;;20711423;28;20401;-15
2021/01/23 09:14:37;;;;;;;8.20;2.35;;;22.90;38.10;;;;;;20744090;28;20542;-15
2021/01/23 09:24:37;;;;;;;14.85;3.15;;;22.80;38.70;;;;;;20745341;28;20179;-15
2021/01/23 09:34:38;;;;;;;25.08;6.03;;;22.60;39.60;;;;;;20749653;28;20104;-15
2021/01/23 09:44:38;;;;;;;26.25;5.88;;;22.60;40.30;;;;;;20737147;28;20034;-15
2021/01/23 09:54:39;;;;;;;34.20;13.95;;;22.60;40.80;;;;;;20743053;28;20060;-14
2021/01/23 10:04:40;;;;;;;24.25;17.30;;;22.50;41.60;;;;;;20726273;28;20030;-15
2021/01/23 10:14:40;;;;;;;33.72;15.30;;;22.60;41.60;;;;;;20732685;28;20509;-15
2021/01/23 10:24:41;;;;;;;20.38;11.38;;;22.50;41.90;;;;;;20748136;28;20389;-15
2021/01/23 10:34:41;;;;;;;24.60;11.32;;;22.70;41.80;;;;;;20742292;28;20481;-16
2021/01/23 10:44:42;;;;;;;25.98;9.43;;;22.50;42.10;;;;;;20709811;28;20049;-15
2021/01/23 10:54:43;;;;;;;23.20;8.45;;;22.50;42.00;;;;;;20699173;28;20022;-14
2021/01/23 11:04:43;;;;;;;15.65;7.53;;;22.30;41.60;;;;;;20728622;28;20033;-15
2021/01/23 11:14:44;;;;;;;14.93;7.60;;;21.90;39.60;;;;;;20730645;28;20025;-15
2021/01/23 11:24:44;;;;;;;9.50;5.45;;;21.60;38.20;;;;;;20739407;28;20026;-16
2021/01/23 11:34:45;;;;;;;11.65;5.32;;;21.10;36.40;;;;;;20743784;28;20064;-15
2021/01/23 11:44:46;;;;;;;9.68;3.58;;;21.20;35.70;;;;;;20741079;28;20107;-15
2021/01/23 11:54:47;;;;;;;11.48;3.20;;;21.70;35.40;;;;;;20742057;28;20037;-13
2021/01/23 12:04:49;;;;;;;10.55;3.55;;;22.30;35.60;;;;;;20730012;28;20025;-16
2021/01/23 12:14:49;;;;;;;13.70;3.20;;;22.90;35.50;;;;;;20737893;28;20030;-15
2021/01/23 12:24:50;;;;;;;17.17;3.17;;;23.30;35.70;;;;;;20755430;28;20108;-15
2021/01/23 12:34:50;;;;;;;10.25;3.50;;;23.70;36.10;;;;;;20727098;28;20742;-16
2021/01/23 12:44:51;;;;;;;15.32;4.15;;;23.70;37.00;;;;;;20739734;28;20037;-16
2021/01/23 12:54:52;;;;;;;9.45;3.55;;;23.30;37.80;;;;;;20754483;28;20045;-15
2021/01/23 13:04:54;;;;;;;11.23;3.63;;;23.00;38.70;;;;;;20753749;28;20041;-15
2021/01/23 13:14:55;;;;;;;10.68;3.50;;;22.80;39.30;;;;;;20747179;28;20034;-14
2021/01/23 13:24:55;;;;;;;10.10;3.53;;;22.70;39.70;;;;;;20747844;28;20165;-16
2021/01/23 13:34:56;;;;;;;7.68;2.78;;;22.10;38.50;;;;;;20723176;28;20065;-15
2021/01/23 13:44:56;;;;;;;6.28;3.05;;;22.10;37.30;;;;;;20711374;28;20132;-14
2021/01/23 13:54:57;;;;;;;10.80;2.75;;;22.40;37.50;;;;;;20684080;28;20042;-15
2021/01/23 14:04:58;;;;;;;8.55;3.55;;;22.50;38.10;;;;;;20704188;28;20037;-13
2021/01/23 14:14:58;;;;;;;15.00;3.92;;;22.40;38.70;;;;;;20720660;28;20041;-13
2021/01/23 14:24:59;;;;;;;25.27;4.20;;;22.50;38.50;;;;;;20743969;28;20512;-15
2021/01/23 14:35:00;;;;;;;9.35;3.83;;;22.40;38.70;;;;;;20745586;28;20575;-16
2021/01/23 14:45:01;;;;;;;10.88;2.97;;;22.50;38.60;;;;;;20752807;28;20026;-15
2021/01/23 14:55:02;;;;;;;5.30;2.65;;;22.40;38.90;;;;;;20741630;28;20133;-14
2021/01/23 15:05:04;;;;;;;9.43;2.90;;;22.50;38.70;;;;;;20740323;28;20456;-15
2021/01/23 15:15:07;;;;;;;5.07;2.15;;;22.30;38.90;;;;;;20740282;28;20034;-15
2021/01/23 15:25:08;;;;;;;5.70;2.55;;;22.50;38.70;;;;;;20745301;28;20040;-15
2021/01/23 15:35:09;;;;;;;6.68;2.20;;;22.30;39.00;;;;;;20739339;28;20481;-15
2021/01/23 15:45:12;;;;;;;7.00;2.92;;;22.50;38.80;;;;;;20739345;28;20018;-15
2021/01/23 15:55:13;;;;;;;4.88;1.70;;;22.50;38.80;;;;;;20740401;28;20034;-15
2021/01/23 16:05:14;;;;;;;3.67;1.70;;;22.50;38.80;;;;;;20754440;28;20653;-15
2021/01/23 16:15:14;;;;;;;4.00;2.08;;;22.50;38.70;;;;;;20754710;28;20472;-14
2021/01/23 16:25:15;;;;;;;4.63;1.88;;;22.50;38.80;;;;;;20757302;28;20072;-12
2021/01/23 16:35:16;;;;;;;32.38;2.85;;;22.60;38.70;;;;;;20731552;28;20027;-15
2021/01/23 16:45:18;;;;;;;3.72;1.92;;;22.40;39.00;;;;;;20674830;28;20116;-14
2021/01/23 16:55:19;;;;;;;8.52;1.60;;;22.60;39.10;;;;;;20664692;28;20624;-15
2021/01/23 17:05:20;;;;;;;4.00;1.27;;;22.50;39.30;;;;;;20752424;28;20072;-13
2021/01/23 17:15:21;;;;;;;6.05;1.50;;;22.60;39.50;;;;;;20755045;28;20104;-15
2021/01/23 17:25:21;;;;;;;2.30;1.48;;;22.60;39.60;;;;;;20759315;28;20099;-15
2021/01/23 17:35:22;;;;;;;6.03;1.17;;;22.60;40.00;;;;;;20769321;28;20033;-14
2021/01/23 17:45:23;;;;;;;3.75;2.33;;;22.60;39.90;;;;;;20767663;28;20091;-14
2021/01/23 17:55:23;;;;;;;2.70;1.40;;;22.50;40.40;;;;;;20751239;28;20022;-15
2021/01/23 18:05:24;;;;;;;5.20;1.92;;;22.80;40.60;;;;;;20748061;28;20131;-15
2021/01/23 18:15:24;;;;;;;7.30;2.00;;;23.20;40.10;;;;;;20758031;28;20057;-15
2021/01/23 18:25:25;;;;;;;277.60;155.17;;;23.60;39.50;;;;;;20752168;28;20038;-15
2021/01/23 18:35:26;;;;;;;297.33;177.10;;;23.90;37.70;;;;;;20674480;28;20481;-15
2021/01/23 18:45:26;;;;;;;232.93;136.95;;;24.20;35.90;;;;;;20658487;28;20658;-14
2021/01/23 18:55:27;;;;;;;182.27;107.75;;;24.50;35.70;;;;;;20677980;28;20509;-15
2021/01/23 19:05:28;;;;;;;150.60;86.32;;;24.40;36.00;;;;;;20663443;28;20039;-15
2021/01/23 19:15:28;;;;;;;127.95;70.85;;;24.20;36.40;;;;;;20667176;28;20080;-15
2021/01/23 19:25:29;;;;;;;105.38;59.35;;;23.90;36.70;;;;;;20667528;28;20030;-15
2021/01/23 19:35:29;;;;;;;94.68;52.40;;;23.90;36.60;;;;;;20678245;28;20026;-14
2021/01/23 19:45:30;;;;;;;81.75;45.58;;;23.70;37.00;;;;;;20704873;28;20037;-14
2021/01/23 19:55:30;;;;;;;80.38;43.47;;;23.60;37.40;;;;;;20759169;28;20473;-14
2021/01/23 20:05:31;;;;;;;68.47;38.67;;;23.90;38.00;;;;;;20768100;28;20065;-14
2021/01/23 20:15:31;;;;;;;59.00;33.60;;;24.10;38.40;;;;;;20754965;28;20045;-13
2021/01/23 20:25:32;;;;;;;56.70;33.08;;;24.40;38.50;;;;;;20756143;28;20037;-15
2021/01/23 20:35:33;;;;;;;52.67;29.75;;;24.30;39.00;;;;;;20760147;28;20026;-15
2021/01/23 20:45:33;;;;;;;44.00;28.02;;;24.20;39.10;;;;;;20754863;28;20037;-15
2021/01/23 20:55:34;;;;;;;41.92;25.13;;;24.10;39.30;;;;;;20755606;28;20358;-15
2021/01/23 21:05:35;;;;;;;38.65;22.00;;;24.10;39.70;;;;;;20753804;28;20555;-15
2021/01/23 21:15:36;;;;;;;37.33;22.02;;;23.90;39.90;;;;;;20749259;28;20057;-15
2021/01/23 21:25:37;;;;;;;36.30;20.20;;;23.90;39.90;;;;;;20746375;28;20037;-15
2021/01/23 21:35:37;;;;;;;33.92;19.23;;;23.90;40.00;;;;;;20746166;28;20029;-14
2021/01/23 21:45:38;;;;;;;27.90;14.93;;;23.80;40.30;;;;;;20750935;28;20560;-15
2021/01/23 21:55:40;;;;;;;24.63;14.75;;;23.80;40.40;;;;;;20746680;28;20077;-16
2021/01/23 22:05:42;;;;;;;30.20;14.38;;;23.70;40.70;;;;;;20745095;28;20366;-14
2021/01/23 22:15:42;;;;;;;22.15;14.18;;;23.80;41.00;;;;;;20738137;28;20512;-15
2021/01/23 22:25:43;;;;;;;25.13;12.88;;;23.90;40.80;;;;;;20748840;28;20030;-15
2021/01/23 22:35:43;;;;;;;23.92;11.18;;;23.80;41.10;;;;;;20741190;28;20076;-15
2021/01/23 22:45:44;;;;;;;21.75;12.13;;;24.00;40.90;;;;;;20750628;28;20033;-14
2021/01/23 22:55:45;;;;;;;18.23;10.73;;;23.80;41.20;;;;;;20725545;28;20037;-13
2021/01/23 23:05:47;;;;;;;18.63;9.67;;;23.60;41.30;;;;;;20750291;28;20374;-14
2021/01/23 23:15:47;;;;;;;18.92;9.77;;;23.60;41.40;;;;;;20730252;28;20033;-14
2021/01/23 23:25:48;;;;;;;12.95;8.23;;;23.50;41.60;;;;;;20747604;28;20481;-14
2021/01/23 23:35:49;;;;;;;17.40;8.93;;;23.50;41.60;;;;;;20746662;28;20050;-14
2021/01/23 23:45:49;;;;;;;11.40;7.23;;;23.50;41.70;;;;;;20758895;28;20077;-14
2021/01/23 23:55:50;;;;;;;9.73;6.57;;;23.30;42.30;;;;;;20767717;28;20484;-15
